Terminal Aerodrome Forecast
Issued by NWS Wilmington, OH

Current Version | Previous Version | Graphics & Text | Print | Product List | Glossary On
Versions: 1 2 3 4 5 6 7 8 9 10 11 12 13 14 15 16 17 18 19 20 21 22 23 24
000
FTUS41 KILN 021700
TAFILN
TAF
KILN 021727Z 0218/0318 08006KT 4SM BR VCSH OVC040
      TEMPO 0218/0219 BKN008
     FM022000 08006KT P6SM VCSH BKN040
     FM030300 05008KT P6SM BKN060
     FM030800 06008KT 4SM BR BKN060
     FM031500 06008KT P6SM BKN040=

USA.gov is the U.S. government's official web portal to all federal, state and local government web resources and services.